sensor_id;sensor_type;location;lat;lon;timestamp;temperature;humidity
1704;DHT22;849;48.780;9.216;2023-10-13T00:02:13;18.90;99.90
1704;DHT22;849;48.780;9.216;2023-10-13T00:04:57;18.90;99.90
1704;DHT22;849;48.780;9.216;2023-10-13T00:07:42;18.90;99.90
1704;DHT22;849;48.780;9.216;2023-10-13T00:10:29;18.90;99.90
1704;DHT22;849;48.780;9.216;2023-10-13T00:13:13;18.90;99.90
1704;DHT22;849;48.780;9.216;2023-10-13T00:15:59;18.80;99.90
1704;DHT22;849;48.780;9.216;2023-10-13T00:18:43;18.90;99.90
1704;DHT22;849;48.780;9.216;2023-10-13T00:21:28;18.90;99.90
1704;DHT22;849;48.780;9.216;2023-10-13T00:24:15;18.80;99.90
1704;DHT22;849;48.780;9.216;2023-10-13T00:27:00;18.90;99.90
1704;DHT22;849;48.780;9.216;2023-10-13T00:29:48;18.60;99.90
1704;DHT22;849;48.780;9.216;2023-10-13T00:32:34;18.60;99.90
1704;DHT22;849;48.780;9.216;2023-10-13T00:35:21;18.50;99.90
1704;DHT22;849;48.780;9.216;2023-10-13T00:38:09;18.50;99.90
1704;DHT22;849;48.780;9.216;2023-10-13T00:41:01;18.40;99.90
1704;DHT22;849;48.780;9.216;2023-10-13T00:43:58;18.40;99.90
1704;DHT22;849;48.780;9.216;2023-10-13T00:46:49;18.40;99.90
1704;DHT22;849;48.780;9.216;2023-10-13T00:49:38;18.40;99.90
1704;DHT22;849;48.780;9.216;2023-10-13T00:52:24;18.30;99.90
1704;DHT22;849;48.780;9.216;2023-10-13T00:55:08;18.30;99.90
1704;DHT22;849;48.780;9.216;2023-10-13T00:57:53;18.20;99.90
1704;DHT22;849;48.780;9.216;2023-10-13T01:00:41;18.20;99.90
1704;DHT22;849;48.780;9.216;2023-10-13T01:03:32;18.20;99.90
1704;DHT22;849;48.780;9.216;2023-10-13T01:06:19;18.20;99.90
1704;DHT22;849;48.780;9.216;2023-10-13T01:09:04;18.10;99.90
1704;DHT22;849;48.780;9.216;2023-10-13T01:12:00;18.20;99.90
1704;DHT22;849;48.780;9.216;2023-10-13T01:14:44;18.10;99.90
1704;DHT22;849;48.780;9.216;2023-10-13T01:17:29;18.10;99.90
1704;DHT22;849;48.780;9.216;2023-10-13T01:20:15;18.10;99.90
1704;DHT22;849;48.780;9.216;2023-10-13T01:23:12;18.00;99.90
1704;DHT22;849;48.780;9.216;2023-10-13T01:26:02;18.00;99.90
1704;DHT22;849;48.780;9.216;2023-10-13T01:28:50;18.00;99.90
1704;DHT22;849;48.780;9.216;2023-10-13T01:31:34;18.00;99.90
1704;DHT22;849;48.780;9.216;2023-10-13T01:34:21;18.00;99.90
1704;DHT22;849;48.780;9.216;2023-10-13T01:37:08;18.00;99.90
1704;DHT22;849;48.780;9.216;2023-10-13T01:39:54;17.90;99.90
1704;DHT22;849;48.780;9.216;2023-10-13T01:42:39;18.00;99.90
1704;DHT22;849;48.780;9.216;2023-10-13T01:45:23;17.90;99.90
1704;DHT22;849;48.780;9.216;2023-10-13T01:48:12;17.90;99.90
1704;DHT22;849;48.780;9.216;2023-10-13T01:51:00;17.90;99.90
1704;DHT22;849;48.780;9.216;2023-10-13T01:53:46;17.90;99.90
1704;DHT22;849;48.780;9.216;2023-10-13T01:56:37;17.90;99.90
1704;DHT22;849;48.780;9.216;2023-10-13T01:59:26;18.00;99.90
1704;DHT22;849;48.780;9.216;2023-10-13T02:02:13;17.80;99.90
1704;DHT22;849;48.780;9.216;2023-10-13T02:04:57;17.70;99.90
1704;DHT22;849;48.780;9.216;2023-10-13T02:07:44;17.70;99.90
1704;DHT22;849;48.780;9.216;2023-10-13T02:10:29;17.60;99.90
1704;DHT22;849;48.780;9.216;2023-10-13T02:13:16;17.70;99.90
1704;DHT22;849;48.780;9.216;2023-10-13T02:16:01;17.50;99.90
1704;DHT22;849;48.780;9.216;2023-10-13T02:18:47;17.40;99.90
1704;DHT22;849;48.780;9.216;2023-10-13T02:21:36;17.40;99.90
1704;DHT22;849;48.780;9.216;2023-10-13T02:24:23;17.40;99.90
1704;DHT22;849;48.780;9.216;2023-10-13T02:27:13;17.60;99.90
1704;DHT22;849;48.780;9.216;2023-10-13T02:29:58;17.40;99.90
1704;DHT22;849;48.780;9.216;2023-10-13T02:32:45;17.40;99.90
1704;DHT22;849;48.780;9.216;2023-10-13T02:35:30;17.40;99.90
1704;DHT22;849;48.780;9.216;2023-10-13T02:38:14;17.40;99.90
1704;DHT22;849;48.780;9.216;2023-10-13T02:41:03;17.30;99.90
1704;DHT22;849;48.780;9.216;2023-10-13T02:43:50;17.30;99.90
1704;DHT22;849;48.780;9.216;2023-10-13T02:46:34;17.20;99.90
1704;DHT22;849;48.780;9.216;2023-10-13T02:49:24;17.20;99.90
1704;DHT22;849;48.780;9.216;2023-10-13T02:52:09;17.20;99.90
1704;DHT22;849;48.780;9.216;2023-10-13T02:54:54;17.20;99.90
1704;DHT22;849;48.780;9.216;2023-10-13T02:57:38;17.20;99.90
1704;DHT22;849;48.780;9.216;2023-10-13T03:00:24;17.10;99.90
1704;DHT22;849;48.780;9.216;2023-10-13T03:03:08;17.10;99.90
1704;DHT22;849;48.780;9.216;2023-10-13T03:05:52;17.00;99.90
1704;DHT22;849;48.780;9.216;2023-10-13T03:08:37;17.00;99.90
1704;DHT22;849;48.780;9.216;2023-10-13T03:11:21;17.00;99.90
1704;DHT22;849;48.780;9.216;2023-10-13T03:14:09;17.00;99.90
1704;DHT22;849;48.780;9.216;2023-10-13T03:17:04;16.90;99.90
1704;DHT22;849;48.780;9.216;2023-10-13T03:19:58;16.80;99.90
1704;DHT22;849;48.780;9.216;2023-10-13T03:22:43;16.80;99.90
1704;DHT22;849;48.780;9.216;2023-10-13T03:25:30;16.80;99.90
1704;DHT22;849;48.780;9.216;2023-10-13T03:28:21;16.80;99.90
1704;DHT22;849;48.780;9.216;2023-10-13T03:31:09;16.80;99.90
1704;DHT22;849;48.780;9.216;2023-10-13T03:34:01;16.70;99.90
1704;DHT22;849;48.780;9.216;2023-10-13T03:36:45;16.80;99.90
1704;DHT22;849;48.780;9.216;2023-10-13T03:39:42;16.70;99.90
1704;DHT22;849;48.780;9.216;2023-10-13T03:42:28;16.70;99.90
1704;DHT22;849;48.780;9.216;2023-10-13T03:45:13;16.60;99.90
1704;DHT22;849;48.780;9.216;2023-10-13T03:47:58;16.60;99.90
1704;DHT22;849;48.780;9.216;2023-10-13T03:50:42;16.60;99.90
1704;DHT22;849;48.780;9.216;2023-10-13T03:53:41;16.70;99.90
1704;DHT22;849;48.780;9.216;2023-10-13T03:56:38;16.60;99.90
1704;DHT22;849;48.780;9.216;2023-10-13T03:59:22;16.80;99.90
1704;DHT22;849;48.780;9.216;2023-10-13T04:02:07;16.50;99.90
1704;DHT22;849;48.780;9.216;2023-10-13T04:05:02;16.60;99.90
1704;DHT22;849;48.780;9.216;2023-10-13T04:07:52;16.50;99.90
1704;DHT22;849;48.780;9.216;2023-10-13T04:10:56;16.50;99.90
1704;DHT22;849;48.780;9.216;2023-10-13T04:13:40;16.40;99.90
1704;DHT22;849;48.780;9.216;2023-10-13T04:16:53;16.40;99.90
1704;DHT22;849;48.780;9.216;2023-10-13T04:19:38;16.40;99.90
1704;DHT22;849;48.780;9.216;2023-10-13T04:22:43;16.40;99.90
1704;DHT22;849;48.780;9.216;2023-10-13T04:25:30;16.40;99.90
1704;DHT22;849;48.780;9.216;2023-10-13T04:28:26;16.40;99.90
1704;DHT22;849;48.780;9.216;2023-10-13T04:31:10;16.80;99.90
1704;DHT22;849;48.780;9.216;2023-10-13T04:34:08;16.30;99.90
1704;DHT22;849;48.780;9.216;2023-10-13T04:37:01;16.30;99.90
1704;DHT22;849;48.780;9.216;2023-10-13T04:40:06;16.30;99.90
1704;DHT22;849;48.780;9.216;2023-10-13T04:42:54;16.20;99.90
1704;DHT22;849;48.780;9.216;2023-10-13T04:45:41;16.20;99.90
1704;DHT22;849;48.780;9.216;2023-10-13T04:48:38;16.20;99.90
1704;DHT22;849;48.780;9.216;2023-10-13T04:51:22;16.20;99.90
1704;DHT22;849;48.780;9.216;2023-10-13T04:54:34;16.20;99.90
1704;DHT22;849;48.780;9.216;2023-10-13T04:57:31;16.10;99.90
1704;DHT22;849;48.780;9.216;2023-10-13T05:00:19;16.10;99.90
1704;DHT22;849;48.780;9.216;2023-10-13T05:03:03;16.10;99.90
1704;DHT22;849;48.780;9.216;2023-10-13T05:06:13;16.00;99.90
1704;DHT22;849;48.780;9.216;2023-10-13T05:09:17;16.20;99.90
1704;DHT22;849;48.780;9.216;2023-10-13T05:12:20;16.00;99.90
1704;DHT22;849;48.780;9.216;2023-10-13T05:15:23;16.00;99.90
1704;DHT22;849;48.780;9.216;2023-10-13T05:18:27;16.00;99.90
1704;DHT22;849;48.780;9.216;2023-10-13T05:21:30;15.90;99.90
1704;DHT22;849;48.780;9.216;2023-10-13T05:24:33;16.00;99.90
1704;DHT22;849;48.780;9.216;2023-10-13T05:27:36;15.90;99.90
1704;DHT22;849;48.780;9.216;2023-10-13T05:30:39;16.00;99.90
1704;DHT22;849;48.780;9.216;2023-10-13T05:33:42;16.00;99.90
1704;DHT22;849;48.780;9.216;2023-10-13T05:36:45;15.90;99.90
1704;DHT22;849;48.780;9.216;2023-10-13T05:39:48;15.80;99.90
1704;DHT22;849;48.780;9.216;2023-10-13T05:42:51;16.10;99.90
1704;DHT22;849;48.780;9.216;2023-10-13T05:46:11;15.80;99.90
1704;DHT22;849;48.780;9.216;2023-10-13T05:49:24;15.80;99.90
1704;DHT22;849;48.780;9.216;2023-10-13T05:52:31;16.00;99.90
1704;DHT22;849;48.780;9.216;2023-10-13T05:55:34;15.70;99.90
1704;DHT22;849;48.780;9.216;2023-10-13T05:58:37;15.80;99.90
1704;DHT22;849;48.780;9.216;2023-10-13T06:01:40;15.80;99.90
1704;DHT22;849;48.780;9.216;2023-10-13T06:04:43;15.90;99.90
1704;DHT22;849;48.780;9.216;2023-10-13T06:07:46;15.90;99.90
1704;DHT22;849;48.780;9.216;2023-10-13T06:10:49;15.90;99.90
1704;DHT22;849;48.780;9.216;2023-10-13T06:13:52;16.00;99.90
1704;DHT22;849;48.780;9.216;2023-10-13T06:16:55;16.10;99.90
1704;DHT22;849;48.780;9.216;2023-10-13T06:19:58;16.50;99.90
1704;DHT22;849;48.780;9.216;2023-10-13T06:23:01;16.30;99.90
1704;DHT22;849;48.780;9.216;2023-10-13T06:26:20;16.30;99.90
1704;DHT22;849;48.780;9.216;2023-10-13T06:29:23;16.40;99.90
1704;DHT22;849;48.780;9.216;2023-10-13T06:32:07;16.50;99.90
1704;DHT22;849;48.780;9.216;2023-10-13T06:34:55;16.60;99.90
1704;DHT22;849;48.780;9.216;2023-10-13T06:37:49;16.60;99.90
1704;DHT22;849;48.780;9.216;2023-10-13T06:40:33;16.80;99.90
1704;DHT22;849;48.780;9.216;2023-10-13T06:43:17;16.80;99.90
1704;DHT22;849;48.780;9.216;2023-10-13T06:46:08;16.80;99.90
1704;DHT22;849;48.780;9.216;2023-10-13T06:48:58;17.20;99.90
1704;DHT22;849;48.780;9.216;2023-10-13T06:51:43;16.90;99.90
1704;DHT22;849;48.780;9.216;2023-10-13T06:54:30;17.00;99.90
1704;DHT22;849;48.780;9.216;2023-10-13T06:57:17;17.00;99.90
1704;DHT22;849;48.780;9.216;2023-10-13T07:00:04;17.30;99.90
1704;DHT22;849;48.780;9.216;2023-10-13T07:02:51;17.10;99.90
1704;DHT22;849;48.780;9.216;2023-10-13T07:05:37;17.20;99.90
1704;DHT22;849;48.780;9.216;2023-10-13T07:08:28;17.20;99.90
1704;DHT22;849;48.780;9.216;2023-10-13T07:11:15;17.20;99.90
1704;DHT22;849;48.780;9.216;2023-10-13T07:14:03;17.30;99.90
1704;DHT22;849;48.780;9.216;2023-10-13T07:16:57;17.30;99.90
1704;DHT22;849;48.780;9.216;2023-10-13T07:19:44;17.30;99.90
1704;DHT22;849;48.780;9.216;2023-10-13T07:22:37;17.40;99.90
1704;DHT22;849;48.780;9.216;2023-10-13T07:25:23;17.80;99.90
1704;DHT22;849;48.780;9.216;2023-10-13T07:28:09;17.50;99.90
1704;DHT22;849;48.780;9.216;2023-10-13T07:30:54;17.50;99.90
1704;DHT22;849;48.780;9.216;2023-10-13T07:33:38;17.60;99.90
1704;DHT22;849;48.780;9.216;2023-10-13T07:36:24;17.60;99.90
1704;DHT22;849;48.780;9.216;2023-10-13T07:39:17;17.70;99.90
1704;DHT22;849;48.780;9.216;2023-10-13T07:42:12;17.70;99.90
1704;DHT22;849;48.780;9.216;2023-10-13T07:45:03;17.70;99.90
1704;DHT22;849;48.780;9.216;2023-10-13T07:47:48;17.80;99.90
1704;DHT22;849;48.780;9.216;2023-10-13T07:50:34;17.80;99.90
1704;DHT22;849;48.780;9.216;2023-10-13T07:53:18;17.80;99.90
1704;DHT22;849;48.780;9.216;2023-10-13T07:56:11;17.80;99.90
1704;DHT22;849;48.780;9.216;2023-10-13T07:58:55;17.90;99.90
1704;DHT22;849;48.780;9.216;2023-10-13T08:01:45;18.00;99.90
1704;DHT22;849;48.780;9.216;2023-10-13T08:04:30;18.00;99.90
1704;DHT22;849;48.780;9.216;2023-10-13T08:07:14;18.00;99.90
1704;DHT22;849;48.780;9.216;2023-10-13T08:09:59;18.10;99.90
1704;DHT22;849;48.780;9.216;2023-10-13T08:12:43;18.10;99.90
1704;DHT22;849;48.780;9.216;2023-10-13T08:15:28;18.20;99.90
1704;DHT22;849;48.780;9.216;2023-10-13T08:18:18;18.70;99.90
1704;DHT22;849;48.780;9.216;2023-10-13T08:21:18;18.50;99.90
1704;DHT22;849;48.780;9.216;2023-10-13T08:24:06;18.40;99.90
1704;DHT22;849;48.780;9.216;2023-10-13T08:26:52;18.40;99.90
1704;DHT22;849;48.780;9.216;2023-10-13T08:30:01;18.50;99.90
1704;DHT22;849;48.780;9.216;2023-10-13T08:32:46;18.50;99.90
1704;DHT22;849;48.780;9.216;2023-10-13T08:35:38;18.60;99.90
1704;DHT22;849;48.780;9.216;2023-10-13T08:38:28;18.70;99.90
1704;DHT22;849;48.780;9.216;2023-10-13T08:41:34;18.70;99.90
1704;DHT22;849;48.780;9.216;2023-10-13T08:44:44;19.00;99.90
1704;DHT22;849;48.780;9.216;2023-10-13T08:47:35;19.10;99.90
1704;DHT22;849;48.780;9.216;2023-10-13T08:50:21;19.20;99.90
1704;DHT22;849;48.780;9.216;2023-10-13T08:53:25;19.30;99.90
1704;DHT22;849;48.780;9.216;2023-10-13T08:56:15;19.70;99.90
1704;DHT22;849;48.780;9.216;2023-10-13T08:58:59;19.90;99.90
1704;DHT22;849;48.780;9.216;2023-10-13T09:01:49;19.60;99.90
1704;DHT22;849;48.780;9.216;2023-10-13T09:04:43;19.90;99.90
1704;DHT22;849;48.780;9.216;2023-10-13T09:07:31;19.80;98.50
1704;DHT22;849;48.780;9.216;2023-10-13T09:10:22;19.80;98.50
1704;DHT22;849;48.780;9.216;2023-10-13T09:13:33;20.00;97.90
1704;DHT22;849;48.780;9.216;2023-10-13T09:16:27;20.10;98.80
1704;DHT22;849;48.780;9.216;2023-10-13T09:19:26;20.20;98.50
1704;DHT22;849;48.780;9.216;2023-10-13T09:22:19;20.30;97.30
1704;DHT22;849;48.780;9.216;2023-10-13T09:25:08;20.40;86.30
1704;DHT22;849;48.780;9.216;2023-10-13T09:27:57;20.70;89.80
1704;DHT22;849;48.780;9.216;2023-10-13T09:33:31;21.10;81.90
1704;DHT22;849;48.780;9.216;2023-10-13T09:36:31;21.20;78.00
1704;DHT22;849;48.780;9.216;2023-10-13T09:39:18;21.60;74.50
1704;DHT22;849;48.780;9.216;2023-10-13T09:42:14;21.60;72.40
1704;DHT22;849;48.780;9.216;2023-10-13T09:45:01;21.70;70.80
1704;DHT22;849;48.780;9.216;2023-10-13T09:47:48;21.90;68.70
1704;DHT22;849;48.780;9.216;2023-10-13T09:50:37;22.00;68.20
1704;DHT22;849;48.780;9.216;2023-10-13T09:53:21;22.00;66.80
1704;DHT22;849;48.780;9.216;2023-10-13T09:56:12;22.10;65.20
1704;DHT22;849;48.780;9.216;2023-10-13T09:59:02;22.30;65.10
1704;DHT22;849;48.780;9.216;2023-10-13T10:01:53;22.40;64.60
1704;DHT22;849;48.780;9.216;2023-10-13T10:04:41;22.50;63.50
1704;DHT22;849;48.780;9.216;2023-10-13T10:07:35;22.60;61.10
1704;DHT22;849;48.780;9.216;2023-10-13T10:10:21;22.80;61.80
1704;DHT22;849;48.780;9.216;2023-10-13T10:13:12;22.90;62.70
1704;DHT22;849;48.780;9.216;2023-10-13T10:16:02;23.00;60.50
1704;DHT22;849;48.780;9.216;2023-10-13T10:18:59;23.10;60.20
1704;DHT22;849;48.780;9.216;2023-10-13T10:21:43;23.20;59.60
1704;DHT22;849;48.780;9.216;2023-10-13T10:24:27;23.30;59.70
1704;DHT22;849;48.780;9.216;2023-10-13T10:27:23;23.30;58.70
1704;DHT22;849;48.780;9.216;2023-10-13T10:30:07;23.40;59.10
1704;DHT22;849;48.780;9.216;2023-10-13T10:32:57;23.60;59.40
1704;DHT22;849;48.780;9.216;2023-10-13T10:35:45;23.60;59.30
1704;DHT22;849;48.780;9.216;2023-10-13T10:38:30;23.50;58.50
1704;DHT22;849;48.780;9.216;2023-10-13T10:41:14;23.60;59.00
1704;DHT22;849;48.780;9.216;2023-10-13T10:43:59;23.70;58.00
1704;DHT22;849;48.780;9.216;2023-10-13T10:46:46;23.70;57.90
1704;DHT22;849;48.780;9.216;2023-10-13T10:49:45;23.80;57.20
1704;DHT22;849;48.780;9.216;2023-10-13T10:52:30;23.80;57.90
1704;DHT22;849;48.780;9.216;2023-10-13T10:55:21;23.80;56.50
1704;DHT22;849;48.780;9.216;2023-10-13T10:58:06;23.90;57.90
1704;DHT22;849;48.780;9.216;2023-10-13T11:00:50;23.90;57.20
1704;DHT22;849;48.780;9.216;2023-10-13T11:04:01;24.00;56.50
1704;DHT22;849;48.780;9.216;2023-10-13T11:06:52;24.10;56.10
1704;DHT22;849;48.780;9.216;2023-10-13T11:09:39;24.20;55.90
1704;DHT22;849;48.780;9.216;2023-10-13T11:12:30;24.20;55.40
1704;DHT22;849;48.780;9.216;2023-10-13T11:15:18;24.30;55.40
1704;DHT22;849;48.780;9.216;2023-10-13T11:18:17;24.40;57.00
1704;DHT22;849;48.780;9.216;2023-10-13T11:21:07;24.40;55.00
1704;DHT22;849;48.780;9.216;2023-10-13T11:23:56;24.80;55.00
1704;DHT22;849;48.780;9.216;2023-10-13T11:26:40;24.80;55.70
1704;DHT22;849;48.780;9.216;2023-10-13T11:29:33;24.70;54.30
1704;DHT22;849;48.780;9.216;2023-10-13T11:32:18;24.80;54.60
1704;DHT22;849;48.780;9.216;2023-10-13T11:35:04;24.90;54.50
1704;DHT22;849;48.780;9.216;2023-10-13T11:37:53;24.90;53.90
1704;DHT22;849;48.780;9.216;2023-10-13T11:40:47;24.90;53.60
1704;DHT22;849;48.780;9.216;2023-10-13T11:43:51;24.90;53.40
1704;DHT22;849;48.780;9.216;2023-10-13T11:46:36;24.90;53.60
1704;DHT22;849;48.780;9.216;2023-10-13T11:49:20;25.00;52.90
1704;DHT22;849;48.780;9.216;2023-10-13T11:52:15;25.00;52.70
1704;DHT22;849;48.780;9.216;2023-10-13T11:55:02;25.00;54.00
1704;DHT22;849;48.780;9.216;2023-10-13T11:57:46;25.00;53.10
1704;DHT22;849;48.780;9.216;2023-10-13T12:00:31;25.10;53.30
1704;DHT22;849;48.780;9.216;2023-10-13T12:03:35;25.10;52.20
1704;DHT22;849;48.780;9.216;2023-10-13T12:06:38;25.20;52.30
1704;DHT22;849;48.780;9.216;2023-10-13T12:09:22;25.30;52.00
1704;DHT22;849;48.780;9.216;2023-10-13T12:12:06;25.40;52.50
1704;DHT22;849;48.780;9.216;2023-10-13T12:14:52;25.40;52.60
1704;DHT22;849;48.780;9.216;2023-10-13T12:17:36;25.50;51.80
1704;DHT22;849;48.780;9.216;2023-10-13T12:20:23;25.50;52.50
1704;DHT22;849;48.780;9.216;2023-10-13T12:23:17;25.60;52.00
1704;DHT22;849;48.780;9.216;2023-10-13T12:26:03;25.60;51.90
1704;DHT22;849;48.780;9.216;2023-10-13T12:29:03;26.00;50.90
1704;DHT22;849;48.780;9.216;2023-10-13T12:31:51;25.70;51.00
1704;DHT22;849;48.780;9.216;2023-10-13T12:34:49;25.80;51.10
1704;DHT22;849;48.780;9.216;2023-10-13T12:37:45;25.70;51.10
1704;DHT22;849;48.780;9.216;2023-10-13T12:40:30;25.80;50.30
1704;DHT22;849;48.780;9.216;2023-10-13T12:43:36;25.90;51.10
1704;DHT22;849;48.780;9.216;2023-10-13T12:46:39;26.00;50.50
1704;DHT22;849;48.780;9.216;2023-10-13T12:49:42;26.00;50.20
1704;DHT22;849;48.780;9.216;2023-10-13T12:52:26;26.10;50.30
1704;DHT22;849;48.780;9.216;2023-10-13T12:55:11;26.50;50.40
1704;DHT22;849;48.780;9.216;2023-10-13T12:57:57;26.20;50.20
1704;DHT22;849;48.780;9.216;2023-10-13T13:00:41;26.30;49.80
1704;DHT22;849;48.780;9.216;2023-10-13T13:03:32;26.30;50.70
1704;DHT22;849;48.780;9.216;2023-10-13T13:06:17;26.50;49.40
1704;DHT22;849;48.780;9.216;2023-10-13T13:09:01;26.30;50.20
1704;DHT22;849;48.780;9.216;2023-10-13T13:11:45;26.40;50.00
1704;DHT22;849;48.780;9.216;2023-10-13T13:14:35;26.50;49.00
1704;DHT22;849;48.780;9.216;2023-10-13T13:17:20;26.50;49.40
1704;DHT22;849;48.780;9.216;2023-10-13T13:20:05;26.60;49.70
1704;DHT22;849;48.780;9.216;2023-10-13T13:22:54;26.60;49.20
1704;DHT22;849;48.780;9.216;2023-10-13T13:25:39;26.60;49.00
1704;DHT22;849;48.780;9.216;2023-10-13T13:28:26;26.70;48.30
1704;DHT22;849;48.780;9.216;2023-10-13T13:31:13;26.70;48.30
1704;DHT22;849;48.780;9.216;2023-10-13T13:33:57;26.60;48.90
1704;DHT22;849;48.780;9.216;2023-10-13T13:36:41;26.70;48.90
1704;DHT22;849;48.780;9.216;2023-10-13T13:39:33;26.80;47.00
1704;DHT22;849;48.780;9.216;2023-10-13T13:42:17;27.20;46.90
1704;DHT22;849;48.780;9.216;2023-10-13T13:45:01;26.90;47.00
1704;DHT22;849;48.780;9.216;2023-10-13T13:47:46;26.80;47.10
1704;DHT22;849;48.780;9.216;2023-10-13T13:50:30;26.90;50.40
1704;DHT22;849;48.780;9.216;2023-10-13T13:53:16;26.70;47.60
1704;DHT22;849;48.780;9.216;2023-10-13T13:56:11;26.60;48.00
1704;DHT22;849;48.780;9.216;2023-10-13T13:58:59;26.60;52.40
1704;DHT22;849;48.780;9.216;2023-10-13T14:01:51;26.50;50.00
1704;DHT22;849;48.780;9.216;2023-10-13T14:04:37;26.50;48.40
1704;DHT22;849;48.780;9.216;2023-10-13T14:07:21;26.50;48.40
1704;DHT22;849;48.780;9.216;2023-10-13T14:10:08;26.90;51.30
1704;DHT22;849;48.780;9.216;2023-10-13T14:13:02;26.50;48.60
1704;DHT22;849;48.780;9.216;2023-10-13T14:16:00;26.50;47.80
1704;DHT22;849;48.780;9.216;2023-10-13T14:18:45;26.50;47.90
1704;DHT22;849;48.780;9.216;2023-10-13T14:21:29;26.60;49.00
1704;DHT22;849;48.780;9.216;2023-10-13T14:24:14;26.60;47.80
1704;DHT22;849;48.780;9.216;2023-10-13T14:26:59;26.50;46.50
1704;DHT22;849;48.780;9.216;2023-10-13T14:29:51;26.50;46.30
1704;DHT22;849;48.780;9.216;2023-10-13T14:32:40;26.60;45.30
1704;DHT22;849;48.780;9.216;2023-10-13T14:35:25;26.60;48.60
1704;DHT22;849;48.780;9.216;2023-10-13T14:38:09;26.60;46.40
1704;DHT22;849;48.780;9.216;2023-10-13T14:40:57;26.50;45.10
1704;DHT22;849;48.780;9.216;2023-10-13T14:43:42;26.50;46.00
1704;DHT22;849;48.780;9.216;2023-10-13T14:46:31;26.60;45.00
1704;DHT22;849;48.780;9.216;2023-10-13T14:49:15;26.60;46.80
1704;DHT22;849;48.780;9.216;2023-10-13T14:52:02;26.50;45.90
1704;DHT22;849;48.780;9.216;2023-10-13T14:54:46;26.50;50.90
1704;DHT22;849;48.780;9.216;2023-10-13T14:57:32;26.50;46.10
1704;DHT22;849;48.780;9.216;2023-10-13T15:00:21;26.40;46.40
1704;DHT22;849;48.780;9.216;2023-10-13T15:03:09;26.60;45.60
1704;DHT22;849;48.780;9.216;2023-10-13T15:05:53;26.50;44.90
1704;DHT22;849;48.780;9.216;2023-10-13T15:08:39;26.80;44.90
1704;DHT22;849;48.780;9.216;2023-10-13T15:11:30;26.70;45.00
1704;DHT22;849;48.780;9.216;2023-10-13T15:14:24;26.90;45.30
1704;DHT22;849;48.780;9.216;2023-10-13T15:17:08;27.80;45.70
1704;DHT22;849;48.780;9.216;2023-10-13T15:19:53;28.80;41.30
1704;DHT22;849;48.780;9.216;2023-10-13T15:22:37;29.30;40.40
1704;DHT22;849;48.780;9.216;2023-10-13T15:25:22;29.40;40.50
1704;DHT22;849;48.780;9.216;2023-10-13T15:28:12;29.40;41.30
1704;DHT22;849;48.780;9.216;2023-10-13T15:30:57;29.10;41.20
1704;DHT22;849;48.780;9.216;2023-10-13T15:33:54;28.50;41.20
1704;DHT22;849;48.780;9.216;2023-10-13T15:36:39;28.00;42.00
1704;DHT22;849;48.780;9.216;2023-10-13T15:39:24;27.60;42.30
1704;DHT22;849;48.780;9.216;2023-10-13T15:42:08;27.30;42.10
1704;DHT22;849;48.780;9.216;2023-10-13T15:44:53;27.10;42.80
1704;DHT22;849;48.780;9.216;2023-10-13T15:47:37;26.90;44.60
1704;DHT22;849;48.780;9.216;2023-10-13T15:50:22;26.80;44.90
1704;DHT22;849;48.780;9.216;2023-10-13T15:53:09;26.60;44.80
1704;DHT22;849;48.780;9.216;2023-10-13T15:55:56;26.50;44.70
1704;DHT22;849;48.780;9.216;2023-10-13T15:58:41;26.30;43.60
1704;DHT22;849;48.780;9.216;2023-10-13T16:01:27;26.20;45.20
1704;DHT22;849;48.780;9.216;2023-10-13T16:04:12;26.10;46.40
1704;DHT22;849;48.780;9.216;2023-10-13T16:06:57;26.00;45.50
1704;DHT22;849;48.780;9.216;2023-10-13T16:09:42;25.80;43.90
1704;DHT22;849;48.780;9.216;2023-10-13T16:12:27;25.70;47.20
1704;DHT22;849;48.780;9.216;2023-10-13T16:15:12;25.50;43.90
1704;DHT22;849;48.780;9.216;2023-10-13T16:17:59;25.50;43.60
1704;DHT22;849;48.780;9.216;2023-10-13T16:20:46;25.50;44.40
1704;DHT22;849;48.780;9.216;2023-10-13T16:23:31;25.50;45.70
1704;DHT22;849;48.780;9.216;2023-10-13T16:26:15;25.40;45.70
1704;DHT22;849;48.780;9.216;2023-10-13T16:28:59;25.30;46.30
1704;DHT22;849;48.780;9.216;2023-10-13T16:31:43;25.30;44.40
1704;DHT22;849;48.780;9.216;2023-10-13T16:34:31;25.20;45.00
1704;DHT22;849;48.780;9.216;2023-10-13T16:37:15;25.20;46.40
1704;DHT22;849;48.780;9.216;2023-10-13T16:40:00;25.10;47.10
1704;DHT22;849;48.780;9.216;2023-10-13T16:42:51;25.00;48.20
1704;DHT22;849;48.780;9.216;2023-10-13T16:45:36;24.90;49.00
1704;DHT22;849;48.780;9.216;2023-10-13T16:48:20;24.70;49.20
1704;DHT22;849;48.780;9.216;2023-10-13T16:51:04;24.60;50.40
1704;DHT22;849;48.780;9.216;2023-10-13T16:53:49;24.40;51.10
1704;DHT22;849;48.780;9.216;2023-10-13T16:56:33;24.30;50.00
1704;DHT22;849;48.780;9.216;2023-10-13T16:59:20;24.10;50.60
1704;DHT22;849;48.780;9.216;2023-10-13T17:02:04;24.00;51.30
1704;DHT22;849;48.780;9.216;2023-10-13T17:04:48;23.80;52.00
1704;DHT22;849;48.780;9.216;2023-10-13T17:07:32;23.60;52.00
1704;DHT22;849;48.780;9.216;2023-10-13T17:10:17;23.50;52.40
1704;DHT22;849;48.780;9.216;2023-10-13T17:13:01;23.30;52.40
1704;DHT22;849;48.780;9.216;2023-10-13T17:15:48;23.20;52.60
1704;DHT22;849;48.780;9.216;2023-10-13T17:18:33;23.10;53.10
1704;DHT22;849;48.780;9.216;2023-10-13T17:21:17;23.10;52.20
1704;DHT22;849;48.780;9.216;2023-10-13T17:24:02;23.00;51.20
1704;DHT22;849;48.780;9.216;2023-10-13T17:26:46;23.00;51.40
1704;DHT22;849;48.780;9.216;2023-10-13T17:29:34;23.10;51.50
1704;DHT22;849;48.780;9.216;2023-10-13T17:32:19;23.00;52.70
1704;DHT22;849;48.780;9.216;2023-10-13T17:35:07;23.20;52.50
1704;DHT22;849;48.780;9.216;2023-10-13T17:37:51;22.90;52.20
1704;DHT22;849;48.780;9.216;2023-10-13T17:40:36;22.90;51.20
1704;DHT22;849;48.780;9.216;2023-10-13T17:43:22;23.00;51.10
1704;DHT22;849;48.780;9.216;2023-10-13T17:46:09;23.00;50.60
1704;DHT22;849;48.780;9.216;2023-10-13T17:48:54;23.40;50.90
1704;DHT22;849;48.780;9.216;2023-10-13T17:51:39;23.20;50.70
1704;DHT22;849;48.780;9.216;2023-10-13T17:54:23;23.20;51.50
1704;DHT22;849;48.780;9.216;2023-10-13T17:57:07;23.30;51.60
1704;DHT22;849;48.780;9.216;2023-10-13T17:59:52;23.30;51.20
1704;DHT22;849;48.780;9.216;2023-10-13T18:02:37;23.30;51.50
1704;DHT22;849;48.780;9.216;2023-10-13T18:05:21;23.30;52.40
1704;DHT22;849;48.780;9.216;2023-10-13T18:08:05;23.30;51.70
1704;DHT22;849;48.780;9.216;2023-10-13T18:10:52;23.20;52.10
1704;DHT22;849;48.780;9.216;2023-10-13T18:13:37;23.30;53.00
1704;DHT22;849;48.780;9.216;2023-10-13T18:16:23;23.10;53.80
1704;DHT22;849;48.780;9.216;2023-10-13T18:19:10;23.10;53.20
1704;DHT22;849;48.780;9.216;2023-10-13T18:21:54;22.90;52.70
1704;DHT22;849;48.780;9.216;2023-10-13T18:24:39;22.90;53.20
1704;DHT22;849;48.780;9.216;2023-10-13T18:27:23;22.90;53.50
1704;DHT22;849;48.780;9.216;2023-10-13T18:30:11;23.00;53.50
1704;DHT22;849;48.780;9.216;2023-10-13T18:32:56;23.00;53.60
1704;DHT22;849;48.780;9.216;2023-10-13T18:35:40;23.10;53.90
1704;DHT22;849;48.780;9.216;2023-10-13T18:38:24;23.10;53.40
1704;DHT22;849;48.780;9.216;2023-10-13T18:41:14;23.20;53.60
1704;DHT22;849;48.780;9.216;2023-10-13T18:43:59;23.20;53.70
1704;DHT22;849;48.780;9.216;2023-10-13T18:46:43;23.20;54.00